Time;durP1;ratioP1;P1;durP2;ratioP2;P2;SDS_P1;SDS_P2;PMS_P1;PMS_P2;Temp;Humidity;BMP_temperature;BMP_pressure;BME280_temperature;BME280_humidity;BME280_pressure;Samples;Min_cycle;Max_cycle;Signal;HPM_P1;HPM_P2
2021/05/30 00:02:50;;;;;;;13.87;9.93;;;;;;;7.95;100.00;99300.26;3718120;78;43374;-22
2021/05/30 00:07:57;;;;;;;14.23;9.33;;;;;;;7.96;100.00;99299.28;3717645;78;44192;-22
2021/05/30 00:13:03;;;;;;;17.70;10.50;;;;;;;7.96;100.00;99300.63;3727701;78;44055;-23
2021/05/30 00:18:09;;;;;;;17.53;10.83;;;;;;;7.99;100.00;99301.73;3716773;79;44073;-23
2021/05/30 00:23:15;;;;;;;17.90;11.48;;;;;;;7.98;100.00;99298.68;3717868;79;44088;-23
2021/05/30 00:28:21;;;;;;;17.87;11.60;;;;;;;8.00;100.00;99305.25;3718364;78;44440;-23
2021/05/30 00:33:27;;;;;;;15.75;10.70;;;;;;;8.00;100.00;99299.89;3717456;79;44165;-23
2021/05/30 00:38:34;;;;;;;16.60;11.30;;;;;;;8.00;100.00;99304.78;3717749;78;43669;-23
2021/05/30 00:43:47;;;;;;;14.55;10.30;;;;;;;7.99;100.00;99304.92;3715452;78;77624;-23
2021/05/30 00:48:53;;;;;;;16.00;10.43;;;;;;;8.05;100.00;99306.25;3714796;79;44470;-22
2021/05/30 00:54:00;;;;;;;18.57;11.40;;;;;;;8.07;100.00;99314.54;3716828;79;43670;-23
2021/05/30 00:59:08;;;;;;;18.43;11.97;;;;;;;8.07;100.00;99310.98;3715254;78;77779;-22
2021/05/30 01:04:14;;;;;;;16.02;10.43;;;;;;;8.04;100.00;99302.70;3717678;79;44111;-26
2021/05/30 01:09:20;;;;;;;18.20;11.07;;;;;;;7.98;100.00;99293.31;3717184;78;44031;-25
2021/05/30 01:14:26;;;;;;;18.10;11.30;;;;;;;7.95;100.00;99290.03;3715247;78;78059;-23
2021/05/30 01:19:34;;;;;;;17.33;10.70;;;;;;;7.89;100.00;99287.82;3714382;79;43751;-24
2021/05/30 01:24:41;;;;;;;15.90;10.23;;;;;;;7.82;100.00;99287.48;3716562;79;44515;-25
2021/05/30 01:29:47;;;;;;;16.53;11.23;;;;;;;7.66;100.00;99294.05;3716880;78;44137;-25
2021/05/30 01:34:53;;;;;;;19.77;11.68;;;;;;;7.65;100.00;99295.03;3716682;79;44102;-25
2021/05/30 01:39:59;;;;;;;16.97;11.80;;;;;;;7.65;100.00;99291.48;3717422;78;43307;-25
2021/05/30 01:45:07;;;;;;;19.13;11.33;;;;;;;7.59;100.00;99290.13;3721576;78;44832;-25
2021/05/30 01:50:15;;;;;;;19.07;11.60;;;;;;;7.48;100.00;99281.61;3712162;78;44172;-25
2021/05/30 01:55:25;;;;;;;18.40;11.67;;;;;;;7.39;100.00;99293.90;3719135;79;43627;-25
2021/05/30 02:00:31;;;;;;;18.37;11.50;;;;;;;7.28;100.00;99291.20;3718945;78;42778;-26
2021/05/30 02:05:40;;;;;;;16.95;11.25;;;;;;;7.24;100.00;99285.70;3706456;80;44021;-26
2021/05/30 02:10:46;;;;;;;19.77;12.07;;;;;;;7.16;100.00;99280.08;3584439;81;43084;-25
2021/05/30 02:15:53;;;;;;;20.23;12.30;;;;;;;7.12;100.00;99292.87;3706863;78;43409;-26
2021/05/30 02:21:00;;;;;;;21.77;12.87;;;;;;;7.11;100.00;99284.96;3586409;83;43663;-26
2021/05/30 02:26:07;;;;;;;20.57;12.37;;;;;;;7.05;100.00;99292.98;3707537;78;44169;-26
2021/05/30 02:31:12;;;;;;;20.47;12.97;;;;;;;6.99;100.00;99292.09;3583988;82;43685;-25
2021/05/30 02:36:19;;;;;;;18.60;11.97;;;;;;;6.93;100.00;99292.08;3706886;79;44104;-25
2021/05/30 02:41:28;;;;;;;20.03;11.77;;;;;;;6.87;100.00;99297.41;3587728;81;42877;-25
2021/05/30 02:46:34;;;;;;;23.23;12.87;;;;;;;6.82;100.00;99297.39;3705555;78;44065;-25
2021/05/30 02:51:41;;;;;;;21.47;12.43;;;;;;;6.73;100.00;99303.82;3583753;81;43561;-25
2021/05/30 02:56:47;;;;;;;23.43;13.97;;;;;;;6.73;100.00;99299.80;3715411;78;43441;-25
2021/05/30 03:01:52;;;;;;;25.43;13.37;;;;;;;6.74;100.00;99305.53;3728154;78;42887;-25
2021/05/30 03:07:00;;;;;;;20.07;12.60;;;;;;;6.72;100.00;99300.77;3727959;79;44165;-25
2021/05/30 03:12:08;;;;;;;22.37;12.80;;;;;;;6.72;100.00;99302.11;3727612;78;44177;-25
2021/05/30 03:17:14;;;;;;;23.33;14.00;;;;;;;6.74;100.00;99301.98;3603994;81;43349;-25
2021/05/30 03:22:21;;;;;;;21.93;13.00;;;;;;;6.70;100.00;99297.34;3727479;78;44187;-26
2021/05/30 03:27:26;;;;;;;21.30;13.30;;;;;;;6.65;100.00;99298.16;3729408;78;43235;-25
2021/05/30 03:32:32;;;;;;;19.53;11.90;;;;;;;6.60;100.00;99308.37;3727246;79;43452;-25
2021/05/30 03:37:38;;;;;;;19.97;12.20;;;;;;;6.52;100.00;99313.45;3729942;79;43920;-21
2021/05/30 03:42:48;;;;;;;20.50;12.63;;;;;;;6.47;100.00;99314.64;3730499;77;43698;-21
2021/05/30 03:47:54;;;;;;;21.23;12.60;;;;;;;6.38;100.00;99318.00;3723782;78;43364;-22
2021/05/30 03:53:00;;;;;;;20.30;12.90;;;;;;;6.31;100.00;99314.91;3729299;78;43734;-20
2021/05/30 03:58:06;;;;;;;22.17;12.60;;;;;;;6.36;100.00;99303.87;3720167;78;43444;-21
2021/05/30 04:03:13;;;;;;;24.60;14.03;;;;;;;6.37;100.00;99308.72;3584333;83;44007;-21
2021/05/30 04:08:19;;;;;;;24.63;13.90;;;;;;;6.41;100.00;99300.84;3706555;80;43687;-20
2021/05/30 04:13:26;;;;;;;21.13;12.80;;;;;;;6.39;100.00;99300.97;3707323;78;44459;-21
2021/05/30 04:18:32;;;;;;;23.43;13.93;;;;;;;6.40;100.00;99304.49;3704660;80;43325;-21
2021/05/30 04:23:38;;;;;;;23.10;13.10;;;;;;;6.42;100.00;99306.58;3707283;78;43386;-21
2021/05/30 04:28:45;;;;;;;21.57;11.87;;;;;;;6.50;100.00;99310.03;3705946;78;44468;-21
2021/05/30 04:33:50;;;;;;;22.17;13.20;;;;;;;6.57;100.00;99308.59;3584940;82;43502;-20
2021/05/30 04:38:56;;;;;;;21.10;13.63;;;;;;;6.66;100.00;99305.23;3706056;80;44986;-21
2021/05/30 04:44:03;;;;;;;24.73;14.43;;;;;;;6.73;100.00;99309.17;3708680;78;43265;-21
2021/05/30 04:49:09;;;;;;;26.77;13.97;;;;;;;6.80;100.00;99309.58;3706476;80;44806;-21
2021/05/30 04:54:15;;;;;;;25.27;14.60;;;;;;;6.89;100.00;99313.36;3585582;81;43489;-21
2021/05/30 04:59:21;;;;;;;23.57;13.57;;;;;;;6.99;100.00;99312.19;3703877;78;43325;-22
2021/05/30 05:04:27;;;;;;;26.00;15.77;;;;;;;7.08;100.00;99316.38;3585092;82;43396;-22
2021/05/30 05:09:33;;;;;;;25.67;15.33;;;;;;;7.20;100.00;99321.27;3707880;80;44032;-22
2021/05/30 05:14:40;;;;;;;25.83;15.13;;;;;;;7.31;100.00;99328.50;3708260;78;42770;-21
2021/05/30 05:19:48;;;;;;;27.03;15.50;;;;;;;7.51;100.00;99321.59;3707958;79;43775;-21
2021/05/30 05:24:54;;;;;;;25.43;15.33;;;;;;;7.75;100.00;99323.33;3585788;81;43690;-21
2021/05/30 05:30:00;;;;;;;24.60;15.17;;;;;;;7.95;100.00;99316.86;3710266;78;43331;-21
2021/05/30 05:35:09;;;;;;;25.30;14.67;;;;;;;8.12;100.00;99321.72;3711499;78;43389;-21
2021/05/30 05:40:16;;;;;;;26.10;15.53;;;;;;;8.24;100.00;99319.02;3708013;80;43455;-22
2021/05/30 05:45:24;;;;;;;24.90;15.17;;;;;;;8.26;100.00;99313.91;3584866;81;73238;-22
2021/05/30 05:50:30;;;;;;;24.10;15.13;;;;;;;8.34;100.00;99314.64;3709060;80;43393;-22
2021/05/30 05:55:37;;;;;;;24.27;14.85;;;;;;;8.45;100.00;99317.30;3587383;83;43710;-22
2021/05/30 06:00:42;;;;;;;22.93;14.67;;;;;;;8.61;100.00;99321.42;3718716;78;43446;-22
2021/05/30 06:05:48;;;;;;;24.50;14.87;;;;;;;8.77;100.00;99315.63;3731135;78;43404;-21
2021/05/30 06:10:55;;;;;;;21.87;13.98;;;;;;;8.94;100.00;99316.42;3730598;78;44745;-20
2021/05/30 06:16:05;;;;;;;22.90;13.68;;;;;;;9.15;100.00;99318.28;3731100;79;43392;-21
2021/05/30 06:21:12;;;;;;;15.98;10.60;;;;;;;9.37;100.00;99318.66;3730579;78;43510;-22
2021/05/30 06:26:18;;;;;;;14.13;8.80;;;;;;;9.63;100.00;99317.38;3729984;78;44034;-23
2021/05/30 06:31:24;;;;;;;12.30;8.80;;;;;;;9.98;100.00;99325.55;3669812;79;43873;-22
2021/05/30 06:36:30;;;;;;;14.00;9.60;;;;;;;10.13;100.00;99339.02;3730466;78;75855;-22
2021/05/30 06:41:37;;;;;;;16.45;9.55;;;;;;;10.30;100.00;99328.09;3730094;78;44058;-21
2021/05/30 06:46:43;;;;;;;12.73;8.70;;;;;;;10.46;100.00;99326.24;3731682;79;43592;-22
2021/05/30 06:51:49;;;;;;;13.88;9.30;;;;;;;10.57;100.00;99322.59;3731803;78;43549;-22
2021/05/30 06:56:55;;;;;;;13.78;9.25;;;;;;;10.73;100.00;99332.82;3731797;78;44822;-23
2021/05/30 07:02:02;;;;;;;15.20;10.25;;;;;;;10.88;100.00;99332.39;3728697;78;43050;-20
2021/05/30 07:07:08;;;;;;;14.40;9.93;;;;;;;10.98;100.00;99329.70;3728100;78;43527;-22
2021/05/30 07:12:14;;;;;;;12.23;8.33;;;;;;;11.24;100.00;99331.33;3729852;79;42664;-22
2021/05/30 07:17:20;;;;;;;14.47;8.03;;;;;;;11.60;100.00;99337.47;3730490;78;43757;-22
2021/05/30 07:22:27;;;;;;;11.85;7.60;;;;;;;11.69;100.00;99334.76;3729173;79;44053;-22
2021/05/30 07:27:34;;;;;;;13.08;7.33;;;;;;;11.69;100.00;99331.19;3733567;78;43998;-22
2021/05/30 07:32:41;;;;;;;9.73;7.22;;;;;;;11.82;100.00;99336.26;3729838;79;43235;-23
2021/05/30 07:37:47;;;;;;;8.55;6.10;;;;;;;11.93;100.00;99336.59;3729382;78;44554;-23
2021/05/30 07:42:55;;;;;;;9.73;6.15;;;;;;;12.09;100.00;99340.04;3762015;77;43352;-22
2021/05/30 07:48:02;;;;;;;9.05;7.30;;;;;;;12.12;100.00;99333.00;3778394;77;44398;-22
2021/05/30 07:53:09;;;;;;;9.85;6.35;;;;;;;12.04;100.00;99336.44;3754096;77;43661;-23
2021/05/30 07:58:15;;;;;;;7.62;5.33;;;;;;;12.37;100.00;99330.09;3759309;77;43265;-23
2021/05/30 08:03:22;;;;;;;8.60;5.80;;;;;;;12.46;100.00;99325.16;3763968;77;69024;-22
2021/05/30 08:08:28;;;;;;;7.50;5.53;;;;;;;12.57;90.76;99330.00;3765596;77;43689;-22
2021/05/30 08:13:35;;;;;;;10.25;6.22;;;;;;;12.75;99.85;99335.44;3758132;77;43746;-22
2021/05/30 08:18:41;;;;;;;9.53;6.35;;;;;;;12.74;100.00;99323.75;3777195;77;43396;-22
2021/05/30 08:23:47;;;;;;;9.60;6.25;;;;;;;12.79;97.27;99327.34;3764486;77;44081;-22
2021/05/30 08:28:54;;;;;;;9.90;6.53;;;;;;;12.85;89.02;99322.69;3755108;77;43678;-22
2021/05/30 08:33:59;;;;;;;8.88;5.33;;;;;;;12.95;95.99;99327.52;3761473;77;43703;-22
2021/05/30 08:39:07;;;;;;;8.35;5.28;;;;;;;13.09;82.21;99325.28;3677459;79;44117;-22
2021/05/30 08:44:15;;;;;;;8.70;5.40;;;;;;;13.15;84.33;99326.00;3685848;79;44582;-22
2021/05/30 08:49:21;;;;;;;11.03;6.50;;;;;;;13.14;87.58;99324.30;3774715;77;43049;-22
2021/05/30 08:54:28;;;;;;;9.28;5.85;;;;;;;13.28;85.31;99335.09;3762928;77;43751;-22
2021/05/30 08:59:37;;;;;;;7.60;5.58;;;;;;;13.38;88.83;99329.56;3678150;79;43751;-22
2021/05/30 09:04:44;;;;;;;5.67;4.37;;;;;;;13.55;87.38;99332.79;3747335;78;44381;-21
2021/05/30 09:09:51;;;;;;;6.78;4.28;;;;;;;13.73;78.72;99322.92;3749907;77;44443;-22
2021/05/30 09:14:57;;;;;;;6.00;4.22;;;;;;;13.79;73.03;99323.62;3669570;79;44098;-22
2021/05/30 09:20:05;;;;;;;6.30;4.00;;;;;;;13.77;77.52;99321.57;3671218;78;44205;-21
2021/05/30 09:25:18;;;;;;;5.72;4.12;;;;;;;13.89;71.85;99328.94;3748498;77;44172;-22
2021/05/30 09:30:30;;;;;;;5.10;3.42;;;;;;;13.91;67.58;99329.63;3673344;79;43025;-22
2021/05/30 09:35:57;;;;;;;5.40;3.60;;;;;;;13.98;65.62;99326.61;3741938;78;43677;-22
2021/05/30 09:41:08;;;;;;;5.17;3.40;;;;;;;14.20;71.95;99331.98;3666877;79;43678;-22
2021/05/30 09:46:16;;;;;;;5.70;3.67;;;;;;;14.17;59.41;99336.37;3742435;77;43685;-22
2021/05/30 09:51:34;;;;;;;5.42;4.10;;;;;;;14.32;70.86;99327.97;3743865;77;43707;-22
2021/05/30 09:56:43;;;;;;;5.65;3.70;;;;;;;14.45;71.78;99324.79;3749848;77;43120;-22
2021/05/30 10:01:58;;;;;;;5.15;3.35;;;;;;;14.59;64.92;99324.66;3758374;77;43703;-22
2021/05/30 10:07:06;;;;;;;6.15;3.80;;;;;;;14.63;64.52;99328.74;3773387;77;44028;-22
2021/05/30 10:12:14;;;;;;;5.17;3.62;;;;;;;14.78;72.12;99322.19;3773240;77;43415;-21
2021/05/30 10:17:21;;;;;;;5.87;3.50;;;;;;;14.87;63.28;99329.02;3750747;78;44014;-22
2021/05/30 10:22:29;;;;;;;6.72;3.65;;;;;;;14.80;60.90;99326.11;3687792;79;43342;-22
2021/05/30 10:27:37;;;;;;;4.33;3.58;;;;;;;15.01;67.20;99330.21;3768435;77;44682;-22
2021/05/30 10:32:46;;;;;;;5.00;3.87;;;;;;;14.99;59.84;99334.95;3775679;77;43690;-22
2021/05/30 10:37:54;;;;;;;5.47;3.67;;;;;;;15.19;68.09;99330.06;3787498;77;43681;-22
2021/05/30 10:43:21;;;;;;;4.97;3.37;;;;;;;15.33;64.48;99329.39;3769555;78;43333;-22
2021/05/30 10:48:27;;;;;;;5.08;3.72;;;;;;;15.36;60.59;99328.20;3700635;79;43718;-22
2021/05/30 10:53:36;;;;;;;4.92;3.20;;;;;;;15.44;57.46;99331.42;3764453;78;43391;-21
2021/05/30 10:58:45;;;;;;;4.72;3.17;;;;;;;15.57;60.78;99324.97;3705408;79;44433;-22
2021/05/30 11:03:54;;;;;;;6.42;3.70;;;;;;;15.80;63.16;99330.52;3768682;77;43380;-22
2021/05/30 11:09:00;;;;;;;4.62;3.40;;;;;;;15.45;61.62;99326.33;3763508;77;44061;-22
2021/05/30 11:14:12;;;;;;;3.62;2.80;;;;;;;15.67;58.91;99320.69;3744855;77;44499;-22
2021/05/30 11:19:19;;;;;;;4.30;2.85;;;;;;;15.81;63.77;99324.59;3664902;79;43689;-22
2021/05/30 11:24:26;;;;;;;3.62;2.62;;;;;;;16.28;57.44;99315.64;3680332;79;44047;-23
2021/05/30 11:29:33;;;;;;;4.33;2.98;;;;;;;16.14;55.14;99312.29;3744090;77;44432;-22
2021/05/30 11:34:39;;;;;;;4.40;2.72;;;;;;;16.37;56.91;99306.08;3748390;77;43667;-23
2021/05/30 11:39:45;;;;;;;3.72;2.52;;;;;;;16.60;54.08;99300.67;3745776;77;43432;-25
2021/05/30 11:44:51;;;;;;;4.95;2.60;;;;;;;16.92;56.04;99300.98;3667075;79;44743;-25
2021/05/30 11:49:59;;;;;;;5.22;2.98;;;;;;;17.06;53.48;99293.09;3753367;77;43397;-25
2021/05/30 11:55:16;;;;;;;2.98;2.67;;;;;;;17.39;57.66;99289.59;3666454;79;44466;-25
2021/05/30 12:00:25;;;;;;;4.42;3.00;;;;;;;17.50;54.24;99282.00;3748478;77;44120;-25
2021/05/30 12:05:31;;;;;;;4.42;2.83;;;;;;;17.31;53.12;99283.37;3698415;79;43674;-25
2021/05/30 12:10:48;;;;;;;4.10;2.77;;;;;;;17.18;55.38;99278.03;3714145;78;44014;-25
2021/05/30 12:15:56;;;;;;;3.90;2.87;;;;;;;17.19;52.57;99278.36;3781768;77;43995;-25
2021/05/30 12:21:02;;;;;;;4.55;2.70;;;;;;;17.16;53.95;99277.36;3701738;78;43354;-25
2021/05/30 12:26:09;;;;;;;3.80;2.52;;;;;;;17.65;52.34;99276.04;3712259;78;44214;-25
2021/05/30 12:31:17;;;;;;;4.60;2.72;;;;;;;17.78;51.91;99271.32;3782152;77;42975;-25
2021/05/30 12:36:37;;;;;;;3.35;2.65;;;;;;;17.68;54.28;99272.12;3773294;77;44364;-25
2021/05/30 12:41:46;;;;;;;5.12;2.70;;;;;;;17.92;51.41;99275.07;3703371;78;43306;-25
2021/05/30 12:46:57;;;;;;;5.08;2.72;;;;;;;18.17;49.57;99266.09;3777475;76;44247;-25
2021/05/30 12:52:06;;;;;;;4.17;2.52;;;;;;;18.59;48.73;99262.30;3780788;77;44551;-25
2021/05/30 12:57:13;;;;;;;8.95;2.70;;;;;;;18.62;46.68;99256.99;3708990;78;44498;-27
2021/05/30 13:02:24;;;;;;;3.05;2.50;;;;;;;18.46;49.74;99262.17;3770583;77;43275;-25
2021/05/30 13:07:33;;;;;;;3.40;2.47;;;;;;;18.78;45.12;99260.83;3666543;80;43718;-25
2021/05/30 13:12:43;;;;;;;5.37;2.50;;;;;;;18.94;45.95;99250.73;3757468;77;43404;-25
2021/05/30 13:18:11;;;;;;;4.58;2.50;;;;;;;19.25;45.76;99244.91;3757783;78;44121;-25
2021/05/30 13:23:23;;;;;;;4.53;2.85;;;;;;;19.50;45.96;99235.41;3668468;79;43133;-25
2021/05/30 13:28:32;;;;;;;3.10;2.20;;;;;;;18.93;46.66;99244.91;3754844;77;43341;-25
2021/05/30 13:33:41;;;;;;;2.90;2.58;;;;;;;19.06;46.72;99242.33;3748548;77;43136;-25
2021/05/30 13:38:49;;;;;;;3.15;2.33;;;;;;;19.34;47.51;99242.89;3751716;77;43243;-25
2021/05/30 13:43:57;;;;;;;3.87;2.33;;;;;;;19.65;44.22;99227.95;3740825;78;44140;-25
2021/05/30 13:49:04;;;;;;;5.47;2.45;;;;;;;20.23;46.03;99218.59;3667016;79;44491;-25
2021/05/30 13:54:11;;;;;;;3.90;2.47;;;;;;;20.00;42.49;99216.17;3755225;77;43074;-26
2021/05/30 13:59:18;;;;;;;4.78;2.62;;;;;;;19.47;46.71;99216.17;3747559;77;43019;-25
2021/05/30 14:04:26;;;;;;;4.20;2.37;;;;;;;19.93;43.64;99212.06;3745059;77;44055;-25
2021/05/30 14:09:33;;;;;;;2.87;2.50;;;;;;;20.18;41.25;99207.41;3669224;79;43333;-25
2021/05/30 14:14:41;;;;;;;3.98;2.22;;;;;;;19.88;43.08;99197.28;3751051;77;43476;-23
2021/05/30 14:19:52;;;;;;;3.02;2.40;;;;;;;20.28;43.78;99199.69;3754081;77;44064;-22
2021/05/30 14:24:59;;;;;;;3.95;2.52;;;;;;;20.98;41.31;99190.88;3673161;79;44052;-22
2021/05/30 14:30:09;;;;;;;3.50;2.25;;;;;;;20.62;42.81;99189.66;3749075;77;43945;-23
2021/05/30 14:35:16;;;;;;;3.92;2.40;;;;;;;21.21;41.29;99191.80;3670286;79;43032;-24
2021/05/30 14:40:25;;;;;;;2.37;2.12;;;;;;;21.15;40.62;99183.91;3753805;77;43697;-23
2021/05/30 14:45:32;;;;;;;3.50;2.20;;;;;;;21.52;41.81;99180.17;3753940;77;43054;-23
2021/05/30 14:50:39;;;;;;;2.50;2.10;;;;;;;22.26;40.63;99177.72;3669479;79;43338;-23
2021/05/30 14:55:47;;;;;;;3.42;2.55;;;;;;;21.31;39.49;99173.57;3749117;77;44106;-24
2021/05/30 15:00:54;;;;;;;3.92;2.10;;;;;;;20.51;40.76;99175.21;3671203;79;44422;-22
2021/05/30 15:06:03;;;;;;;3.45;2.50;;;;;;;20.95;40.01;99168.83;3747366;77;43710;-23
2021/05/30 15:11:10;;;;;;;3.50;2.30;;;;;;;20.58;42.58;99166.47;3677157;79;43255;-22
2021/05/30 15:16:18;;;;;;;3.77;2.05;;;;;;;21.89;38.80;99162.37;3780480;76;43753;-24
2021/05/30 15:21:25;;;;;;;4.08;2.50;;;;;;;20.94;39.43;99163.03;3669748;79;43019;-23
2021/05/30 15:26:32;;;;;;;3.47;2.30;;;;;;;20.51;41.90;99165.63;3682384;79;44004;-23
2021/05/30 15:31:44;;;;;;;2.58;2.10;;;;;;;21.44;40.40;99163.09;3741123;77;44484;-23
2021/05/30 15:36:46;;;;;;;3.72;2.20;;;;;;;21.63;37.94;99151.80;3752252;77;43468;-23
2021/05/30 15:41:55;;;;;;;5.40;2.25;;;;;;;21.80;39.15;99151.66;3674040;79;43727;-23
2021/05/30 15:47:02;;;;;;;3.90;2.72;;;;;;;21.37;41.08;99162.59;3683025;79;44465;-23
2021/05/30 15:52:09;;;;;;;2.95;2.35;;;;;;;20.93;40.17;99153.99;3756045;77;43669;-23
2021/05/30 15:57:16;;;;;;;5.40;2.70;;;;;;;20.11;42.36;99145.00;3669236;79;43975;-23
2021/05/30 16:02:22;;;;;;;2.83;2.37;;;;;;;20.69;40.80;99145.00;3682832;79;43990;-23
2021/05/30 16:07:28;;;;;;;3.15;2.30;;;;;;;21.01;39.79;99131.53;3715673;78;43113;-23
2021/05/30 16:12:35;;;;;;;4.62;2.10;;;;;;;21.01;40.76;99135.64;3701114;78;43684;-23
2021/05/30 16:17:42;;;;;;;2.40;2.20;;;;;;;20.70;41.43;99143.95;3703613;78;43284;-23
2021/05/30 16:22:48;;;;;;;2.77;2.30;;;;;;;20.08;41.07;99134.46;3704202;78;44453;-23
2021/05/30 16:27:54;;;;;;;3.00;2.37;;;;;;;21.03;39.15;99123.95;3705278;78;43354;-23
2021/05/30 16:33:00;;;;;;;3.37;2.30;;;;;;;21.45;38.74;99126.41;3702375;78;43336;-23
2021/05/30 16:38:06;;;;;;;3.65;2.60;;;;;;;20.96;41.43;99123.95;3701718;80;42899;-23
2021/05/30 16:43:12;;;;;;;3.58;2.90;;;;;;;19.97;42.45;99124.44;3702849;78;43771;-23
2021/05/30 16:48:22;;;;;;;3.00;2.65;;;;;;;19.88;42.44;99115.24;3696150;79;44019;-23
2021/05/30 16:53:28;;;;;;;2.67;2.47;;;;;;;19.61;43.08;99116.49;3695196;79;43022;-24
2021/05/30 16:58:34;;;;;;;3.25;2.60;;;;;;;19.42;44.02;99115.34;3630378;80;44109;-23
2021/05/30 17:03:43;;;;;;;3.17;2.42;;;;;;;19.50;42.83;99113.80;3615978;80;42909;-23
2021/05/30 17:08:50;;;;;;;3.80;2.50;;;;;;;20.16;41.78;99106.40;3655608;80;44667;-22
2021/05/30 17:13:59;;;;;;;2.92;2.20;;;;;;;19.92;42.34;99103.72;3654768;80;44046;-23
2021/05/30 17:19:06;;;;;;;3.00;2.40;;;;;;;20.18;40.06;99104.81;3651758;80;44682;-22
2021/05/30 17:24:13;;;;;;;2.47;2.20;;;;;;;20.36;40.93;99098.73;3658027;79;43678;-22
2021/05/30 17:29:23;;;;;;;2.33;2.12;;;;;;;20.72;38.50;99098.04;3614406;80;43942;-22
2021/05/30 17:34:29;;;;;;;4.30;2.60;;;;;;;20.89;40.94;99095.74;3642511;79;44139;-22
2021/05/30 17:39:36;;;;;;;3.37;2.40;;;;;;;21.12;40.24;99095.27;3730845;77;43674;-22
2021/05/30 17:44:42;;;;;;;2.92;2.62;;;;;;;21.47;41.13;99093.59;3731271;77;43096;-22
2021/05/30 17:49:48;;;;;;;3.77;3.10;;;;;;;21.19;41.46;99090.64;3721102;77;44087;-22
2021/05/30 17:54:53;;;;;;;4.12;2.58;;;;;;;21.06;41.55;99083.81;3720707;77;44062;-22
2021/05/30 18:00:00;;;;;;;4.03;2.80;;;;;;;21.10;41.26;99086.45;3713927;77;44019;-22
2021/05/30 18:05:09;;;;;;;3.45;2.52;;;;;;;20.97;42.34;99083.73;3719481;79;26392;-22
2021/05/30 18:10:15;;;;;;;3.08;2.35;;;;;;;20.97;43.64;99080.99;3747847;78;43991;-21
2021/05/30 18:15:21;;;;;;;3.08;2.50;;;;;;;20.83;43.12;99081.00;3749519;78;43689;-22
2021/05/30 18:20:28;;;;;;;3.12;2.70;;;;;;;20.57;43.04;99077.19;3680926;79;44078;-22
2021/05/30 18:25:35;;;;;;;2.80;2.40;;;;;;;20.25;43.85;99074.22;3746137;78;43462;-22
2021/05/30 18:30:43;;;;;;;3.75;2.70;;;;;;;20.14;44.92;99072.93;3743982;78;44038;-23
2021/05/30 18:35:50;;;;;;;2.87;2.55;;;;;;;19.89;44.98;99071.30;3679392;79;43361;-23
2021/05/30 18:40:57;;;;;;;3.08;2.77;;;;;;;19.52;46.04;99074.28;3749608;78;44022;-23
2021/05/30 18:46:02;;;;;;;3.58;2.77;;;;;;;18.97;47.40;99071.48;3750102;78;44250;-23
2021/05/30 18:51:21;;;;;;;3.75;2.75;;;;;;;18.43;47.99;99068.84;3665897;79;42986;-21
2021/05/30 18:56:30;;;;;;;4.78;2.83;;;;;;;18.00;48.77;99077.33;3748872;78;43760;-21
2021/05/30 19:01:36;;;;;;;3.87;3.05;;;;;;;17.49;49.74;99074.09;3746283;78;44086;-21
2021/05/30 19:06:43;;;;;;;3.50;2.60;;;;;;;17.19;50.34;99079.58;3739358;77;44024;-21
2021/05/30 19:11:50;;;;;;;3.83;2.35;;;;;;;16.86;50.88;99073.11;3742287;77;43867;-21
2021/05/30 19:16:57;;;;;;;4.80;3.12;;;;;;;16.57;51.16;99078.82;3742794;77;43875;-21
2021/05/30 19:22:03;;;;;;;4.83;2.70;;;;;;;16.28;51.70;99075.00;3731469;77;43293;-21
2021/05/30 19:27:09;;;;;;;3.77;2.67;;;;;;;16.11;52.31;99081.05;3732213;77;43353;-22
2021/05/30 19:32:17;;;;;;;4.28;2.67;;;;;;;15.98;53.11;99091.70;3755617;77;43677;-22
2021/05/30 19:37:23;;;;;;;6.55;3.35;;;;;;;15.79;53.56;99085.65;3745640;77;43677;-22
2021/05/30 19:42:34;;;;;;;3.70;2.70;;;;;;;15.25;59.23;99091.84;3747762;77;44110;-21
2021/05/30 19:47:38;;;;;;;3.83;2.60;;;;;;;14.45;66.64;99092.15;3730443;77;44397;-22
2021/05/30 19:52:44;;;;;;;3.85;2.70;;;;;;;14.10;68.40;99095.00;3733567;77;43730;-23
2021/05/30 19:57:51;;;;;;;4.08;2.90;;;;;;;13.77;69.37;99090.88;3738076;77;44773;-23
2021/05/30 20:02:57;;;;;;;4.60;2.77;;;;;;;13.78;65.86;99086.30;3743334;77;44453;-22
2021/05/30 20:08:03;;;;;;;3.92;2.42;;;;;;;13.76;65.61;99091.05;3739756;77;44180;-23
2021/05/30 20:13:11;;;;;;;3.47;2.20;;;;;;;13.54;64.11;99095.55;3744793;77;44031;-24
2021/05/30 20:18:18;;;;;;;2.75;2.10;;;;;;;13.37;63.87;99091.91;3749770;77;43294;-24
2021/05/30 20:23:24;;;;;;;3.17;2.00;;;;;;;13.24;63.99;99092.34;3728429;77;43390;-23
2021/05/30 20:28:33;;;;;;;5.17;2.00;;;;;;;13.15;62.31;99100.08;3746891;77;44615;-23
2021/05/30 20:33:38;;;;;;;2.83;1.80;;;;;;;13.16;62.12;99099.08;3747639;77;43740;-24
2021/05/30 20:38:45;;;;;;;3.47;2.00;;;;;;;12.91;63.81;99108.92;3743750;77;44065;-24
2021/05/30 20:43:53;;;;;;;3.45;2.35;;;;;;;12.73;64.14;99113.02;3739625;77;42998;-23
2021/05/30 20:48:59;;;;;;;2.92;1.77;;;;;;;12.72;63.97;99112.16;3746808;77;44254;-22
2021/05/30 20:54:05;;;;;;;2.90;2.20;;;;;;;12.60;64.06;99119.69;3736660;77;43721;-24
2021/05/30 20:59:11;;;;;;;2.30;1.80;;;;;;;12.48;64.55;99119.59;3733747;77;43465;-24
2021/05/30 21:04:17;;;;;;;3.77;2.20;;;;;;;12.49;64.33;99114.53;3659082;79;43382;-23
2021/05/30 21:09:24;;;;;;;2.33;1.85;;;;;;;12.38;63.56;99117.48;3629060;79;43717;-23
2021/05/30 21:14:31;;;;;;;3.72;2.20;;;;;;;12.38;63.86;99112.08;3636490;79;43389;-23
2021/05/30 21:19:37;;;;;;;2.25;2.05;;;;;;;12.28;65.06;99122.47;3636208;79;43686;-23
2021/05/30 21:24:43;;;;;;;3.20;2.10;;;;;;;12.22;65.60;99116.32;3650483;79;43392;-23
2021/05/30 21:29:49;;;;;;;3.00;2.10;;;;;;;12.19;66.68;99113.92;3643656;79;43334;-22
2021/05/30 21:34:55;;;;;;;2.10;1.90;;;;;;;12.10;67.75;99117.55;3744913;77;43621;-22
2021/05/30 21:40:01;;;;;;;2.52;2.05;;;;;;;12.08;68.01;99119.55;3712146;78;43299;-22
2021/05/30 21:45:09;;;;;;;2.30;1.82;;;;;;;12.04;68.24;99116.83;3744325;77;44480;-22
2021/05/30 21:50:15;;;;;;;3.75;2.17;;;;;;;11.92;69.44;99123.78;3710682;78;43718;-22
2021/05/30 21:55:21;;;;;;;5.17;2.00;;;;;;;11.96;68.27;99127.84;3743712;77;43418;-22
2021/05/30 22:00:29;;;;;;;4.50;2.20;;;;;;;11.81;69.57;99122.64;3704943;78;44038;-22
2021/05/30 22:05:35;;;;;;;2.65;2.20;;;;;;;11.77;69.78;99126.13;3726895;77;43424;-22
2021/05/30 22:10:42;;;;;;;2.10;1.90;;;;;;;11.76;70.08;99123.59;3708382;78;44055;-22
2021/05/30 22:15:51;;;;;;;4.37;2.00;;;;;;;11.82;69.04;99122.97;3742183;77;44046;-22
2021/05/30 22:20:57;;;;;;;3.42;2.12;;;;;;;11.79;70.16;99127.34;3717912;78;43466;-23
2021/05/30 22:26:04;;;;;;;4.17;2.17;;;;;;;11.80;69.79;99127.69;3740423;77;43076;-22
2021/05/30 22:31:10;;;;;;;3.90;2.30;;;;;;;11.78;69.92;99126.48;3736229;77;44019;-22
2021/05/30 22:36:16;;;;;;;2.40;1.95;;;;;;;11.77;70.02;99125.29;3741358;77;44505;-22
2021/05/30 22:41:22;;;;;;;4.17;2.25;;;;;;;11.79;69.75;99117.37;3671335;79;43995;-21
2021/05/30 22:46:28;;;;;;;3.77;2.20;;;;;;;11.80;70.91;99119.59;3730750;79;43415;-21
2021/05/30 22:51:34;;;;;;;2.77;2.10;;;;;;;11.63;72.33;99122.09;3697506;78;44171;-22
2021/05/30 22:56:42;;;;;;;2.27;2.08;;;;;;;11.59;73.28;99115.80;3740959;77;44174;-24
2021/05/30 23:01:48;;;;;;;3.02;2.35;;;;;;;11.55;74.39;99116.09;3684538;78;43722;-22
2021/05/30 23:06:54;;;;;;;4.65;1.92;;;;;;;11.56;73.71;99114.27;3744662;78;43642;-21
2021/05/30 23:12:00;;;;;;;2.92;2.00;;;;;;;11.54;73.34;99110.86;3753442;77;42844;-22
2021/05/30 23:17:07;;;;;;;2.75;2.17;;;;;;;11.49;75.11;99111.31;3711310;78;44114;-22
2021/05/30 23:22:13;;;;;;;3.70;2.15;;;;;;;11.45;74.90;99103.67;3733525;77;42819;-23
2021/05/30 23:27:19;;;;;;;2.55;2.20;;;;;;;11.40;74.34;99105.48;3760482;77;44238;-22
2021/05/30 23:32:25;;;;;;;2.50;2.10;;;;;;;11.34;74.20;99108.76;3725050;78;44154;-23
2021/05/30 23:37:31;;;;;;;3.10;2.50;;;;;;;11.31;73.58;99099.13;3748413;77;43032;-22
2021/05/30 23:42:38;;;;;;;3.10;2.35;;;;;;;11.29;73.26;99101.11;3754829;77;43698;-23
2021/05/30 23:47:45;;;;;;;2.90;2.20;;;;;;;11.27;73.40;99096.36;3742217;77;44093;-23
2021/05/30 23:52:55;;;;;;;2.90;2.20;;;;;;;11.22;72.97;99092.77;3740060;77;43704;-21
2021/05/30 23:58:01;;;;;;;3.35;2.27;;;;;;;11.25;72.26;99087.08;3752087;77;44046;-21
